< < Back
Terminal Aerodrome Forecast


Current Version              Previous Versions:   1  2  3  4  5  6  7  8  9  

Terminal Aerodrome Forecast

255
FTUS42 KGSP 031120
TAFAND
TAF
KAND 031120Z 0312/0412 06003KT P6SM SKC
     FM031800 23006KT P6SM SCT060
     FM040200 17003KT P6SM FEW060 BKN250
     FM040800 00000KT P6SM FEW110 BKN250=

Latest METAR

730
SAUS70 KWBC 031600 RRB
MTRAND
METAR KAND 031556Z AUTO 19004KT 10SM CLR 23/11 A3020 RMK AO2 SLP221
T02280111


USA.gov is the U.S. government's official web portal to all federal, state and local government web resources and services.